createdAt,value
2017-12-06T00:00:13.541Z,7.04
2017-12-06T00:02:41.081Z,7.06
2017-12-06T00:05:08.616Z,7.08
2017-12-06T00:07:36.109Z,7.11
2017-12-06T00:10:03.640Z,7.14
2017-12-06T00:15:41.792Z,7.20
2017-12-06T00:18:09.272Z,7.25
2017-12-06T00:20:36.762Z,7.29
2017-12-06T00:23:04.279Z,7.31
2017-12-06T00:25:31.764Z,7.31
2017-12-06T00:27:59.291Z,7.29
2017-12-06T00:30:26.770Z,7.29
2017-12-06T00:32:54.258Z,7.31
2017-12-06T00:35:21.786Z,7.30
2017-12-06T00:37:49.292Z,7.33
2017-12-06T00:40:16.782Z,7.31
2017-12-06T00:42:44.412Z,7.33
2017-12-06T00:45:11.916Z,7.32
2017-12-06T00:47:39.420Z,7.36
2017-12-06T00:50:06.949Z,7.36
2017-12-06T00:52:34.542Z,7.39
2017-12-06T00:55:02.033Z,7.41
2017-12-06T00:57:29.545Z,7.41
2017-12-06T00:59:57.159Z,7.39
2017-12-06T01:02:24.639Z,7.40
2017-12-06T01:04:52.124Z,7.38
2017-12-06T01:07:19.707Z,7.37
2017-12-06T01:09:47.192Z,7.34
2017-12-06T01:12:14.669Z,7.37
2017-12-06T01:14:42.210Z,7.33
2017-12-06T01:17:09.724Z,7.35
2017-12-06T01:19:37.211Z,7.35
2017-12-06T01:22:04.720Z,7.32
2017-12-06T01:24:32.240Z,7.38
2017-12-06T01:26:59.755Z,7.35
2017-12-06T01:29:27.244Z,7.30
2017-12-06T01:31:54.874Z,7.30
2017-12-06T01:34:22.360Z,7.31
2017-12-06T01:36:49.849Z,7.36
2017-12-06T01:39:17.380Z,7.37
2017-12-06T01:41:44.880Z,7.36
2017-12-06T01:44:12.370Z,7.36
2017-12-06T01:46:39.890Z,7.42
2017-12-06T01:49:07.381Z,7.42
2017-12-06T01:51:34.875Z,7.42
2017-12-06T01:54:02.394Z,7.36
2017-12-06T01:56:29.887Z,7.39
2017-12-06T01:58:57.375Z,7.32
2017-12-06T02:01:24.919Z,7.28
2017-12-06T02:03:52.406Z,7.25
2017-12-06T02:06:19.891Z,7.27
2017-12-06T02:08:47.410Z,7.26
2017-12-06T02:11:15.003Z,7.26
2017-12-06T02:13:42.492Z,7.23
2017-12-06T02:16:10.010Z,7.20
2017-12-06T02:18:37.496Z,7.19
2017-12-06T02:21:05.642Z,7.13
2017-12-06T02:23:33.147Z,7.11
2017-12-06T02:26:00.652Z,7.14
2017-12-06T02:28:28.188Z,7.16
2017-12-06T02:30:55.679Z,7.16
2017-12-06T02:33:23.164Z,7.18
2017-12-06T02:35:50.696Z,7.13
2017-12-06T02:38:18.272Z,7.13
2017-12-06T02:40:57.716Z,7.12
2017-12-06T02:43:37.067Z,7.16
2017-12-06T02:46:04.591Z,7.14
2017-12-06T02:48:32.080Z,7.14
2017-12-06T02:50:59.603Z,7.11
2017-12-06T02:53:27.139Z,7.09
2017-12-06T02:55:54.731Z,7.08
2017-12-06T02:58:22.218Z,7.07
2017-12-06T03:00:49.866Z,7.09
2017-12-06T03:03:17.354Z,7.07
2017-12-06T03:05:44.854Z,7.06
2017-12-06T03:08:12.436Z,7.03
2017-12-06T03:10:39.972Z,7.02
2017-12-06T03:13:07.458Z,7.02
2017-12-06T03:15:35.000Z,7.07
2017-12-06T03:18:02.544Z,7.05
2017-12-06T03:20:30.032Z,7.06
2017-12-06T03:22:57.572Z,7.11
2017-12-06T03:25:25.108Z,7.09
2017-12-06T03:27:52.603Z,7.06
2017-12-06T03:30:20.157Z,7.04
2017-12-06T03:32:47.699Z,7.04
2017-12-06T03:35:15.194Z,7.06
2017-12-06T03:37:42.718Z,7.05
2017-12-06T03:40:10.247Z,7.06
2017-12-06T03:42:37.730Z,7.04
2017-12-06T03:45:05.223Z,6.99
2017-12-06T03:47:32.762Z,7.02
2017-12-06T03:50:00.248Z,7.04
2017-12-06T03:52:27.750Z,7.07
2017-12-06T03:54:55.292Z,7.07
2017-12-06T03:57:22.786Z,7.05
2017-12-06T03:59:50.275Z,7.02
2017-12-06T04:02:17.824Z,7.06
2017-12-06T04:04:45.316Z,7.10
2017-12-06T04:07:12.819Z,7.07
2017-12-06T04:09:40.352Z,7.04
2017-12-06T04:12:07.843Z,7.04
2017-12-06T04:14:35.402Z,7.04
2017-12-06T04:17:02.931Z,7.05
2017-12-06T04:19:30.433Z,7.05
2017-12-06T04:21:57.970Z,7.03
2017-12-06T04:24:25.520Z,7.01
2017-12-06T04:26:53.008Z,7.01
2017-12-06T04:29:20.500Z,7.00
2017-12-06T04:31:48.040Z,7.02
2017-12-06T04:34:15.560Z,7.04
2017-12-06T13:35:47.211Z,7.84
2017-12-06T13:38:14.686Z,7.81
2017-12-06T13:40:42.177Z,7.83
2017-12-06T13:43:09.754Z,7.77
2017-12-06T13:45:37.236Z,7.80
2017-12-06T13:48:04.785Z,7.79
2017-12-06T13:50:32.388Z,7.81
2017-12-06T13:52:59.857Z,7.79
2017-12-06T13:55:27.340Z,7.83
2017-12-06T13:57:54.862Z,7.84
2017-12-06T14:00:22.358Z,7.83
2017-12-06T14:02:49.864Z,7.79
2017-12-06T14:05:17.435Z,7.78
2017-12-06T14:07:44.953Z,7.79
2017-12-06T14:10:12.444Z,7.76
2017-12-06T14:12:39.961Z,7.75
2017-12-06T14:15:07.454Z,7.75
2017-12-06T14:17:34.969Z,7.71
2017-12-06T14:20:02.483Z,7.66
2017-12-06T14:22:29.999Z,7.69
2017-12-06T14:24:57.497Z,7.70
2017-12-06T14:27:25.023Z,7.68
2017-12-06T14:29:52.517Z,7.69
2017-12-06T14:32:20.015Z,7.69
2017-12-06T14:34:47.543Z,7.70
2017-12-06T14:37:15.029Z,7.69
2017-12-06T14:39:42.610Z,7.72
2017-12-06T14:42:10.130Z,7.72
2017-12-06T14:44:37.626Z,7.72
2017-12-06T14:47:05.112Z,7.71
2017-12-06T14:49:32.627Z,7.68
2017-12-06T14:52:00.111Z,7.70
2017-12-06T14:54:27.590Z,7.72
2017-12-06T14:56:55.105Z,7.68
2017-12-06T14:59:22.592Z,7.66
2017-12-06T15:01:50.137Z,7.67
2017-12-06T15:04:17.708Z,7.66
2017-12-06T15:06:45.196Z,7.63
2017-12-06T15:09:12.724Z,7.64
2017-12-06T15:11:40.253Z,7.61
2017-12-06T15:14:07.731Z,7.63
2017-12-06T15:16:35.232Z,7.67
2017-12-06T15:19:02.870Z,7.67
2017-12-06T15:21:30.359Z,7.66
2017-12-06T15:23:57.843Z,7.67
2017-12-06T15:26:25.421Z,7.66
2017-12-06T15:28:52.912Z,7.67
2017-12-06T15:31:20.415Z,7.63
2017-12-06T15:33:48.089Z,7.60
2017-12-06T15:36:15.583Z,7.61
2017-12-06T15:38:43.083Z,7.57
2017-12-06T15:41:10.610Z,7.59
2017-12-06T15:43:38.099Z,7.57
2017-12-06T15:46:05.685Z,7.59
2017-12-06T15:48:33.230Z,7.62
2017-12-06T15:51:00.807Z,7.60
2017-12-06T15:53:28.327Z,7.62
2017-12-06T15:55:55.927Z,7.66
2017-12-06T15:58:23.438Z,7.64
2017-12-06T16:00:50.964Z,7.63
2017-12-06T16:03:18.484Z,7.61
2017-12-06T16:05:46.024Z,7.61
2017-12-06T16:08:13.535Z,7.61
2017-12-06T16:10:41.174Z,7.59
2017-12-06T16:13:08.658Z,7.60
2017-12-06T16:15:36.261Z,7.60
2017-12-06T16:18:03.825Z,7.63
2017-12-06T16:20:31.330Z,7.60
2017-12-06T16:22:58.828Z,7.62
2017-12-06T16:25:26.427Z,7.61
2017-12-06T16:27:53.925Z,7.63
2017-12-06T16:30:21.451Z,7.60
2017-12-06T16:32:49.111Z,7.60
2017-12-06T16:35:28.738Z,7.63
2017-12-06T16:37:56.267Z,7.66
2017-12-06T16:40:23.832Z,7.68
2017-12-06T16:42:51.396Z,7.70
2017-12-06T16:45:19.105Z,7.74
2017-12-06T16:47:46.587Z,7.76
2017-12-06T16:50:14.091Z,7.74
2017-12-06T16:52:41.679Z,7.77
2017-12-06T16:55:09.192Z,7.81
2017-12-06T16:57:36.697Z,7.80
2017-12-06T17:00:04.236Z,7.78
2017-12-06T17:02:31.719Z,7.78
2017-12-06T17:04:59.197Z,7.79
2017-12-06T17:07:26.727Z,7.79
2017-12-06T17:09:54.216Z,7.89
2017-12-06T17:12:21.791Z,7.90
2017-12-06T17:14:49.387Z,7.88
2017-12-06T17:17:16.928Z,7.85
2017-12-06T17:19:44.438Z,7.82
2017-12-06T17:22:12.195Z,7.84
2017-12-06T17:24:39.678Z,7.86
2017-12-06T17:27:07.254Z,7.84
2017-12-06T17:32:41.478Z,7.82
2017-12-06T17:35:09.011Z,7.89
2017-12-06T17:37:36.500Z,7.92
2017-12-06T17:40:03.974Z,7.92
2017-12-06T17:42:31.662Z,7.87
2017-12-06T17:44:59.154Z,7.87
2017-12-06T17:47:26.637Z,7.90
2017-12-06T17:49:54.214Z,7.91
2017-12-06T17:52:21.702Z,7.88
2017-12-06T17:54:49.186Z,7.87
2017-12-06T17:57:16.708Z,7.90
2017-12-06T17:59:44.193Z,7.91
2017-12-06T18:02:11.670Z,7.89
2017-12-06T18:04:39.223Z,7.84
2017-12-06T18:07:06.752Z,7.86
2017-12-06T18:09:34.229Z,7.84
2017-12-06T18:12:01.781Z,7.85
2017-12-06T18:14:29.271Z,7.87
2017-12-06T18:16:56.746Z,7.88
2017-12-06T18:19:24.331Z,7.89
2017-12-06T18:21:51.809Z,7.87
2017-12-06T18:24:19.298Z,7.86
2017-12-06T18:26:46.835Z,8.08
2017-12-06T18:29:14.322Z,8.14
2017-12-06T18:31:41.802Z,8.11
2017-12-06T18:34:09.382Z,8.05
2017-12-06T18:36:36.874Z,7.99
2017-12-06T18:39:04.454Z,7.93
2017-12-06T18:41:31.985Z,7.90
2017-12-06T18:43:59.464Z,7.89
2017-12-06T18:46:26.952Z,7.93
2017-12-06T18:48:54.478Z,7.92
2017-12-06T18:51:21.970Z,7.90
2017-12-06T18:53:49.472Z,7.90
2017-12-06T18:56:17.037Z,7.87
2017-12-06T18:58:44.598Z,7.84
2017-12-06T19:01:12.074Z,7.86
2017-12-06T19:03:39.694Z,7.85
2017-12-06T19:06:07.172Z,7.87
2017-12-06T19:08:34.655Z,7.89
2017-12-06T19:11:02.192Z,7.87
2017-12-06T19:13:29.684Z,7.91
2017-12-06T19:15:57.190Z,7.88
2017-12-06T19:18:24.707Z,7.87
2017-12-06T19:20:52.190Z,7.90
2017-12-06T19:23:19.761Z,7.92
2017-12-06T19:25:47.288Z,7.95
2017-12-06T19:28:14.779Z,7.95
2017-12-06T19:30:42.262Z,7.95
2017-12-06T19:33:09.914Z,7.93
2017-12-06T19:35:37.394Z,7.95
2017-12-06T19:38:04.883Z,7.98
2017-12-06T19:40:32.411Z,7.97
2017-12-06T19:42:59.890Z,7.96
2017-12-06T19:45:27.406Z,7.96
2017-12-06T19:47:55.008Z,7.99
2017-12-06T19:50:22.550Z,7.97
2017-12-06T19:52:50.078Z,7.96
2017-12-06T19:55:17.593Z,7.94
2017-12-06T19:57:45.078Z,7.92
2017-12-06T20:00:12.574Z,7.93
2017-12-06T20:02:40.094Z,7.94
2017-12-06T20:05:07.570Z,7.96
2017-12-06T20:07:35.056Z,7.95
2017-12-06T20:10:02.677Z,7.92
2017-12-06T20:12:30.231Z,7.92
2017-12-06T20:14:57.757Z,7.94
2017-12-06T20:17:25.278Z,7.95
2017-12-06T20:19:52.754Z,7.99
2017-12-06T20:22:20.239Z,8.01
2017-12-06T20:24:47.795Z,8.00
2017-12-06T20:27:15.282Z,7.97
2017-12-06T20:29:42.766Z,7.99
2017-12-06T20:32:10.315Z,8.01
2017-12-06T20:34:37.799Z,7.98
2017-12-06T20:37:05.306Z,7.97
2017-12-06T20:39:32.830Z,7.95
2017-12-06T20:42:00.320Z,7.91
2017-12-06T20:44:27.800Z,7.88
2017-12-06T20:46:55.342Z,7.91
2017-12-06T20:49:22.835Z,7.92
2017-12-06T20:51:50.333Z,7.91
2017-12-06T20:54:17.926Z,7.90
2017-12-06T20:56:45.604Z,7.84
2017-12-06T20:59:13.099Z,7.83
2017-12-06T21:01:40.602Z,7.84
2017-12-06T21:04:08.155Z,7.82
2017-12-06T21:06:35.631Z,7.85
2017-12-06T21:09:03.160Z,7.87
2017-12-06T21:11:30.779Z,7.90
2017-12-06T21:13:58.263Z,7.89
2017-12-06T21:16:25.782Z,7.89
2017-12-06T21:18:53.258Z,7.90
2017-12-06T21:21:20.749Z,7.93
2017-12-06T21:23:48.261Z,7.93
2017-12-06T21:26:15.744Z,7.95
2017-12-06T21:28:43.231Z,7.96
2017-12-06T21:31:10.750Z,7.96
2017-12-06T21:33:38.235Z,7.97
2017-12-06T21:36:05.718Z,7.98
2017-12-06T21:38:33.277Z,8.00
2017-12-06T21:41:00.760Z,7.99
2017-12-06T21:43:28.234Z,7.97
2017-12-06T21:45:55.748Z,8.07
2017-12-06T21:48:23.227Z,8.05
2017-12-06T21:50:50.731Z,8.07
2017-12-06T21:53:18.242Z,8.05
2017-12-06T21:55:45.783Z,8.05
2017-12-06T21:58:13.333Z,8.02
2017-12-06T22:00:40.851Z,8.01
2017-12-06T22:03:08.327Z,8.01
2017-12-06T22:05:35.810Z,8.02
2017-12-06T22:08:03.330Z,8.03
2017-12-06T22:10:30.846Z,8.05
2017-12-06T22:12:58.401Z,8.07
2017-12-06T22:15:25.906Z,8.03
2017-12-06T22:17:53.378Z,8.04
2017-12-06T22:20:20.857Z,8.08
2017-12-06T22:22:48.386Z,8.06
2017-12-06T22:25:15.980Z,8.08
2017-12-06T22:27:43.464Z,8.08
2017-12-06T22:30:10.991Z,8.07
2017-12-06T22:32:38.551Z,8.07
2017-12-06T22:35:06.030Z,8.06
2017-12-06T22:37:33.544Z,8.04
2017-12-06T22:40:01.030Z,8.06
2017-12-06T22:42:28.514Z,8.06
2017-12-06T22:45:07.821Z,8.05
2017-12-06T22:47:35.369Z,8.02
2017-12-06T22:50:02.854Z,8.04
2017-12-06T22:52:30.397Z,8.09
2017-12-06T22:54:57.877Z,8.10
2017-12-06T22:57:25.358Z,8.11
2017-12-06T22:59:52.901Z,8.08
2017-12-06T23:02:20.378Z,8.07
2017-12-06T23:04:47.907Z,8.07
2017-12-06T23:07:15.433Z,8.05
2017-12-06T23:09:42.920Z,8.08
2017-12-06T23:12:10.519Z,8.09
2017-12-06T23:14:38.141Z,8.09
2017-12-06T23:17:05.618Z,8.07
2017-12-06T23:19:33.100Z,8.15
2017-12-06T23:22:00.602Z,8.10
2017-12-06T23:24:28.078Z,8.08
2017-12-06T23:26:55.566Z,8.09
2017-12-06T23:29:23.101Z,8.09
2017-12-06T23:31:50.626Z,8.05
2017-12-06T23:34:18.186Z,8.05
2017-12-06T23:36:45.699Z,8.03
2017-12-06T23:39:13.177Z,8.03
2017-12-06T23:41:40.664Z,7.99
2017-12-06T23:44:08.250Z,7.98
2017-12-06T23:46:35.723Z,8.00
2017-12-06T23:49:03.232Z,8.00
2017-12-06T23:51:30.815Z,7.98
2017-12-06T23:53:58.290Z,7.98
2017-12-06T23:56:25.762Z,8.00
2017-12-06T23:58:53.267Z,7.97
